Time;durP1;ratioP1;P1;durP2;ratioP2;P2;SDS_P1;SDS_P2;PMS_P1;PMS_P2;Temp;Humidity;BMP_temperature;BMP_pressure;BME280_temperature;BME280_humidity;BME280_pressure;Samples;Min_cycle;Max_cycle;Signal;HPM_P1;HPM_P2
2021/09/13 00:01:52;;;;;;;1.88;0.30;;;;;;;15.61;54.41;101734.69;5036171;28;20044;-70
2021/09/13 00:04:17;;;;;;;3.33;0.63;;;;;;;15.63;54.18;101735.47;5040819;28;20032;-70
2021/09/13 00:06:45;;;;;;;5.35;0.70;;;;;;;15.65;54.39;101733.59;5040864;28;20029;-67
2021/09/13 00:09:10;;;;;;;2.05;0.32;;;;;;;15.68;54.16;101727.34;5037800;28;20040;-67
2021/09/13 00:11:36;;;;;;;2.17;0.30;;;;;;;15.69;54.35;101735.16;5033742;28;20022;-65
2021/09/13 00:14:01;;;;;;;3.30;0.75;;;;;;;15.63;54.17;101729.34;5040720;28;20025;-65
2021/09/13 00:16:28;;;;;;;4.07;0.50;;;;;;;15.63;54.21;101734.63;5036710;28;20052;-67
2021/09/13 00:18:53;;;;;;;4.15;0.30;;;;;;;15.62;54.06;101733.75;5034672;28;20490;-66
2021/09/13 00:21:22;;;;;;;0.93;0.15;;;;;;;15.62;54.13;101730.25;5034937;28;20044;-64
2021/09/13 00:23:47;;;;;;;2.55;0.38;;;;;;;15.60;53.86;101730.34;5034287;28;20644;-65
2021/09/13 00:26:13;;;;;;;6.03;0.85;;;;;;;15.53;53.45;101724.50;5034850;28;20029;-66
2021/09/13 00:28:38;;;;;;;3.83;0.40;;;;;;;15.57;53.70;101731.34;5041111;28;20515;-66
2021/09/13 00:31:06;;;;;;;4.18;0.28;;;;;;;15.53;53.37;101740.31;5038680;28;20418;-64
2021/09/13 00:33:34;;;;;;;3.42;0.40;;;;;;;15.52;53.87;101735.97;5040073;28;20029;-65
2021/09/13 00:36:02;;;;;;;4.68;0.40;;;;;;;15.51;53.35;101741.31;5033801;28;20044;-66
2021/09/13 00:38:27;;;;;;;5.93;0.30;;;;;;;15.49;53.29;101725.59;5035275;28;20032;-67
2021/09/13 00:40:54;;;;;;;3.63;0.50;;;;;;;15.45;53.35;101731.06;5036071;28;20021;-66
2021/09/13 00:43:22;;;;;;;3.63;0.40;;;;;;;15.47;53.21;101735.34;5032184;28;20040;-67
2021/09/13 00:45:47;;;;;;;4.57;0.20;;;;;;;15.42;53.17;101733.88;5033798;28;20037;-66
2021/09/13 00:48:13;;;;;;;9.52;0.90;;;;;;;15.47;53.01;101740.59;5037809;28;20158;-66
2021/09/13 00:50:39;;;;;;;1.55;0.35;;;;;;;15.50;52.51;101732.53;5033421;28;20033;-67
2021/09/13 00:53:05;;;;;;;4.03;0.73;;;;;;;15.41;52.45;101740.03;5043553;28;20040;-65
2021/09/13 00:55:33;;;;;;;8.55;0.40;;;;;;;15.28;52.54;101738.00;5036228;28;20088;-67
2021/09/13 00:58:02;;;;;;;4.63;0.70;;;;;;;15.30;52.22;101732.63;5041253;28;20064;-65
2021/09/13 01:00:28;;;;;;;5.47;0.25;;;;;;;15.36;51.79;101733.19;5034897;28;20517;-67
2021/09/13 01:02:53;;;;;;;11.95;0.52;;;;;;;15.40;51.90;101728.66;5040762;28;20037;-65
2021/09/13 01:05:19;;;;;;;5.60;0.50;;;;;;;15.38;51.66;101730.50;5018450;28;20106;-65
2021/09/13 01:07:48;;;;;;;4.43;0.40;;;;;;;15.41;51.60;101727.72;5033046;28;20118;-66
2021/09/13 01:10:14;;;;;;;3.15;0.22;;;;;;;15.40;51.66;101723.38;5033557;28;20532;-67
2021/09/13 01:12:39;;;;;;;10.57;1.50;;;;;;;15.35;51.48;101720.97;5035760;28;20029;-66
2021/09/13 01:15:05;;;;;;;5.03;0.40;;;;;;;15.36;51.59;101727.94;5033784;28;20711;-68
2021/09/13 01:17:31;;;;;;;6.45;1.15;;;;;;;15.35;50.90;101730.66;5019420;28;20029;-67
2021/09/13 01:19:57;;;;;;;6.57;0.85;;;;;;;15.41;51.06;101725.06;5039817;28;20115;-66
2021/09/13 01:22:27;;;;;;;2.00;0.68;;;;;;;15.46;51.03;101728.38;5043825;28;20033;-66
2021/09/13 01:25:00;;;;;;;4.93;0.35;;;;;;;15.51;50.71;101723.72;5019436;28;20040;-67
2021/09/13 01:27:26;;;;;;;4.72;0.30;;;;;;;15.48;50.87;101726.53;5039759;28;20078;-67
2021/09/13 01:29:52;;;;;;;6.70;0.25;;;;;;;15.40;51.08;101718.13;5032767;28;20266;-66
2021/09/13 01:32:19;;;;;;;3.85;0.22;;;;;;;15.08;51.77;101738.00;5032444;28;20037;-67
2021/09/13 01:34:53;;;;;;;6.93;0.63;;;;;;;15.38;50.97;101733.13;5053089;28;20028;-66
2021/09/13 01:37:21;;;;;;;7.50;0.65;;;;;;;15.30;50.88;101728.22;5034117;28;20113;-66
2021/09/13 01:39:46;;;;;;;11.60;0.68;;;;;;;15.18;51.27;101734.03;5035080;28;20617;-70
2021/09/13 01:42:14;;;;;;;5.78;0.80;;;;;;;15.01;51.98;101734.78;5042062;28;20053;-68
2021/09/13 01:44:39;;;;;;;4.13;0.47;;;;;;;15.08;51.79;101736.25;5043090;28;20072;-68
2021/09/13 01:47:05;;;;;;;8.30;0.30;;;;;;;15.00;51.73;101733.09;5037625;28;20025;-69
2021/09/13 01:49:33;;;;;;;7.85;0.50;;;;;;;14.65;52.87;101740.75;5041901;28;20492;-69
2021/09/13 01:51:58;;;;;;;3.13;0.32;;;;;;;14.88;51.96;101736.25;5043400;28;20128;-69
2021/09/13 01:54:24;;;;;;;6.25;0.40;;;;;;;;;;5042110;28;20148;-69
2021/09/13 01:56:51;;;;;;;4.32;0.40;;;;;;;14.76;52.29;101735.03;5035432;28;20139;-65
2021/09/13 01:59:28;;;;;;;2.70;0.50;;;;;;;14.80;52.13;101743.66;5035922;28;20032;-68
2021/09/13 02:01:53;;;;;;;11.32;0.77;;;;;;;14.79;52.24;101747.19;5036408;28;20029;-67
2021/09/13 02:04:19;;;;;;;9.23;0.75;;;;;;;14.70;52.64;101746.69;5040145;28;20094;-68
2021/09/13 02:06:47;;;;;;;8.25;0.95;;;;;;;14.79;52.38;101752.44;5036111;28;20034;-67
2021/09/13 02:09:15;;;;;;;5.70;0.40;;;;;;;14.84;52.14;101753.13;5037908;28;20591;-67
2021/09/13 02:11:41;;;;;;;9.07;1.15;;;;;;;14.72;52.29;101751.88;5041038;28;20033;-67
2021/09/13 02:14:07;;;;;;;4.40;0.20;;;;;;;14.80;52.05;101748.91;5035786;28;20575;-67
2021/09/13 02:16:33;;;;;;;3.10;0.28;;;;;;;14.79;52.34;101747.19;5037931;28;20037;-69
2021/09/13 02:19:00;;;;;;;7.65;0.28;;;;;;;14.73;52.22;101749.19;5054658;28;20029;-69
2021/09/13 02:21:26;;;;;;;2.70;0.40;;;;;;;14.67;52.30;101754.69;5042261;28;20044;-67
2021/09/13 02:23:52;;;;;;;6.45;0.77;;;;;;;14.70;52.61;101754.59;5056727;28;20029;-67
2021/09/13 02:26:18;;;;;;;1.13;0.40;;;;;;;14.82;52.45;101752.34;5038314;28;20090;-69
2021/09/13 02:28:43;;;;;;;3.67;0.40;;;;;;;14.89;52.07;101754.63;5037772;28;20063;-68
2021/09/13 02:31:09;;;;;;;3.70;0.13;;;;;;;14.97;51.99;101751.66;5037858;28;20095;-70
2021/09/13 02:33:35;;;;;;;3.50;0.40;;;;;;;15.01;51.99;101757.63;5041061;28;20068;-68
2021/09/13 02:36:02;;;;;;;6.38;0.55;;;;;;;15.06;51.76;101756.50;5039887;28;20035;-69
2021/09/13 02:38:27;;;;;;;7.15;0.73;;;;;;;15.06;51.80;101758.25;5052878;28;20033;-70
2021/09/13 02:40:54;;;;;;;3.08;0.47;;;;;;;15.04;51.80;101758.34;5019986;28;20132;-71
2021/09/13 02:43:20;;;;;;;2.15;0.20;;;;;;;15.06;51.83;101761.78;5041164;28;20029;-70
2021/09/13 02:45:46;;;;;;;5.97;0.65;;;;;;;15.08;51.70;101761.69;5035790;28;20036;-69
2021/09/13 02:48:11;;;;;;;1.85;0.20;;;;;;;15.16;51.68;101757.78;5020954;28;20494;-70
2021/09/13 02:50:37;;;;;;;5.13;0.60;;;;;;;15.22;51.77;101761.97;5034774;28;20060;-70
2021/09/13 02:53:03;;;;;;;2.25;0.17;;;;;;;15.30;51.47;101758.97;5026603;28;20490;-69
2021/09/13 02:55:30;;;;;;;8.25;0.30;;;;;;;15.43;50.90;101767.16;5044091;28;20060;-70
2021/09/13 02:57:56;;;;;;;3.80;0.55;;;;;;;15.41;50.92;101764.59;5020832;28;20758;-69
2021/09/13 03:00:21;;;;;;;10.27;0.95;;;;;;;15.38;50.89;101767.38;5038440;28;20033;-75
2021/09/13 03:03:29;;;;;;;3.63;0.30;;;;;;;15.34;51.17;101771.91;5035953;28;20402;-75
2021/09/13 03:05:55;;;;;;;5.43;0.40;;;;;;;15.35;51.00;101772.81;5026296;28;20029;-71
2021/09/13 03:08:21;;;;;;;5.03;0.40;;;;;;;15.37;50.71;101763.91;5022958;28;20688;-69
2021/09/13 03:10:46;;;;;;;6.80;1.17;;;;;;;15.34;50.20;101771.91;5040172;28;20034;-71
2021/09/13 03:13:13;;;;;;;2.60;0.20;;;;;;;15.29;50.16;101767.81;5035608;28;20037;-69
2021/09/13 03:15:40;;;;;;;4.68;0.13;;;;;;;15.31;50.38;101771.22;5054836;28;20047;-69
2021/09/13 03:18:05;;;;;;;4.47;0.30;;;;;;;15.31;50.70;101765.97;5040918;28;20413;-70
2021/09/13 03:20:32;;;;;;;5.22;0.30;;;;;;;15.35;50.33;101773.66;5045510;28;20246;-71
2021/09/13 03:22:57;;;;;;;4.90;0.68;;;;;;;15.27;50.24;101777.56;5038776;28;20541;-69
2021/09/13 03:25:24;;;;;;;3.33;0.52;;;;;;;15.24;50.69;101775.03;5057660;28;20112;-70
2021/09/13 03:27:53;;;;;;;2.35;0.28;;;;;;;15.22;50.72;101782.19;5037755;28;20029;-70
2021/09/13 03:30:19;;;;;;;6.38;0.50;;;;;;;15.12;51.17;101769.38;5040905;28;20754;-70
2021/09/13 03:32:46;;;;;;;3.90;0.68;;;;;;;15.12;51.08;101777.28;5037767;28;20032;-70
2021/09/13 03:35:12;;;;;;;3.78;0.10;;;;;;;15.15;51.41;101768.41;5041154;28;20037;-70
2021/09/13 03:37:38;;;;;;;4.15;0.45;;;;;;;15.17;51.27;101772.69;5033206;28;20176;-70
2021/09/13 03:40:06;;;;;;;7.22;0.50;;;;;;;15.20;51.13;101774.31;5041039;28;20579;-70
2021/09/13 03:42:31;;;;;;;6.43;0.63;;;;;;;15.16;51.61;101773.59;5042671;28;20030;-70
2021/09/13 03:44:59;;;;;;;1.83;0.32;;;;;;;15.16;51.56;101770.94;5043621;28;20031;-70
2021/09/13 03:47:43;;;;;;;5.05;0.30;;;;;;;15.15;51.39;101771.88;5038125;28;20595;-70
2021/09/13 03:50:09;;;;;;;6.28;1.40;;;;;;;15.14;51.50;101772.78;5037660;28;20119;-70
2021/09/13 03:52:35;;;;;;;6.68;0.50;;;;;;;15.12;51.37;101772.00;5032983;28;20635;-70
2021/09/13 03:55:00;;;;;;;9.10;1.30;;;;;;;15.16;51.55;101773.59;5040794;28;20041;-70
2021/09/13 03:57:29;;;;;;;4.68;0.30;;;;;;;15.12;51.40;101771.16;5037255;28;20032;-72
2021/09/13 03:59:54;;;;;;;3.50;0.50;;;;;;;15.12;51.65;101772.00;5039417;28;20444;-72
2021/09/13 04:02:22;;;;;;;2.83;0.30;;;;;;;15.10;51.58;101778.28;5019142;28;20033;-71
2021/09/13 04:04:49;;;;;;;4.65;0.77;;;;;;;15.04;51.62;101778.56;5037726;28;20215;-71
2021/09/13 04:07:31;;;;;;;4.78;0.40;;;;;;;15.04;51.63;101773.31;5018857;28;20029;-74
2021/09/13 04:13:19;;;;;;;4.88;0.50;;;;;;;15.02;51.78;101775.16;5033556;28;20036;-72
2021/09/13 04:15:57;;;;;;;4.65;0.73;;;;;;;14.99;52.12;101770.84;5020816;28;20033;-71
2021/09/13 04:18:42;;;;;;;3.22;0.32;;;;;;;14.91;52.10;101773.00;5035385;28;20041;-71
2021/09/13 04:21:31;;;;;;;8.98;0.60;;;;;;;14.85;52.35;101770.63;5028745;28;20045;-70
2021/09/13 04:24:19;;;;;;;2.88;1.10;;;;;;;14.81;52.49;101767.25;5042513;28;20052;-71
2021/09/13 04:27:05;;;;;;;1.77;0.30;;;;;;;14.81;52.33;101771.66;5038010;28;20112;-71
2021/09/13 04:29:54;;;;;;;5.45;0.55;;;;;;;14.85;52.32;101771.47;5034350;28;20036;-71
2021/09/13 04:32:19;;;;;;;4.55;0.40;;;;;;;14.88;52.14;101773.09;5034134;28;20418;-70
2021/09/13 04:35:04;;;;;;;6.15;0.40;;;;;;;14.88;52.18;101778.38;5037115;28;20102;-70
2021/09/13 04:37:50;;;;;;;5.22;0.47;;;;;;;14.96;52.38;101771.00;5041097;28;20116;-72
2021/09/13 04:40:44;;;;;;;2.20;0.40;;;;;;;15.05;52.22;101775.84;4999892;28;20049;-70
2021/09/13 04:43:33;;;;;;;5.57;0.38;;;;;;;15.07;51.94;101779.28;5029131;28;20037;-70
2021/09/13 04:46:28;;;;;;;10.70;0.93;;;;;;;15.02;51.97;101768.09;5041432;28;20647;-71
2021/09/13 04:49:14;;;;;;;2.65;0.50;;;;;;;14.98;51.90;101763.88;5034453;28;20056;-72
2021/09/13 04:51:58;;;;;;;2.63;0.40;;;;;;;14.83;51.76;101764.56;5036236;28;20132;-71
2021/09/13 04:54:46;;;;;;;7.72;1.13;;;;;;;14.75;52.47;101763.13;5043712;28;20463;-72
2021/09/13 04:57:13;;;;;;;4.22;0.60;;;;;;;14.81;52.51;101763.78;5053544;28;20386;-72
2021/09/13 04:59:39;;;;;;;3.10;0.63;;;;;;;14.83;52.30;101760.16;5021337;28;20082;-72
2021/09/13 05:02:08;;;;;;;9.07;0.50;;;;;;;14.74;52.40;101756.13;5035539;28;20064;-72
2021/09/13 05:04:35;;;;;;;3.42;0.40;;;;;;;14.73;52.54;101770.22;5053058;28;20036;-69
2021/09/13 05:07:02;;;;;;;2.80;0.30;;;;;;;14.77;52.59;101771.81;5033916;28;20504;-72
2021/09/13 05:09:28;;;;;;;2.13;0.50;;;;;;;14.73;52.90;101769.38;5039249;28;20092;-73
2021/09/13 05:11:54;;;;;;;4.07;0.28;;;;;;;14.82;52.50;101779.50;5040116;28;20040;-73
2021/09/13 05:14:22;;;;;;;7.97;1.05;;;;;;;14.75;52.74;101785.97;5039105;28;20030;-76
2021/09/13 05:16:48;;;;;;;3.38;0.65;;;;;;;14.90;52.81;101782.66;5045910;28;20025;-72
2021/09/13 05:19:15;;;;;;;2.70;0.50;;;;;;;14.84;52.20;101782.09;5048537;28;20037;-72
2021/09/13 05:21:41;;;;;;;4.72;0.40;;;;;;;14.69;52.43;101783.59;5048845;28;20038;-73
2021/09/13 05:24:11;;;;;;;4.28;0.50;;;;;;;14.86;52.58;101780.25;5056734;28;20037;-75
2021/09/13 05:26:40;;;;;;;5.78;1.15;;;;;;;14.88;52.34;101788.88;5038409;28;20029;-75
2021/09/13 05:29:06;;;;;;;6.95;1.13;;;;;;;14.95;52.54;101785.09;5025909;28;20029;-75
2021/09/13 05:31:32;;;;;;;2.60;0.45;;;;;;;14.96;52.12;101792.06;5038298;28;20112;-74
2021/09/13 05:33:58;;;;;;;7.43;0.65;;;;;;;14.91;51.99;101788.78;5060503;28;20556;-76
2021/09/13 05:36:24;;;;;;;4.55;0.93;;;;;;;14.93;51.98;101786.94;5045015;28;20056;-73
2021/09/13 05:38:50;;;;;;;6.13;0.57;;;;;;;15.02;52.30;101796.22;5040025;28;20025;-75
2021/09/13 05:41:36;;;;;;;5.80;0.77;;;;;;;15.20;52.08;101795.38;5044934;28;20044;-74
2021/09/13 05:44:05;;;;;;;3.88;0.35;;;;;;;15.27;51.62;101790.72;5056512;28;20065;-76
2021/09/13 05:46:31;;;;;;;8.35;0.73;;;;;;;15.29;51.17;101794.16;5037209;28;20661;-75
2021/09/13 05:48:59;;;;;;;4.68;0.57;;;;;;;15.36;51.07;101795.56;5044848;28;20032;-76
2021/09/13 05:51:24;;;;;;;3.17;0.57;;;;;;;15.46;50.75;101796.00;5038792;28;20032;-73
2021/09/13 05:53:50;;;;;;;8.25;0.65;;;;;;;15.49;50.55;101801.13;5041344;28;20019;-76
2021/09/13 05:56:16;;;;;;;2.58;0.38;;;;;;;15.58;50.82;101800.72;5024542;28;20417;-74
2021/09/13 05:58:42;;;;;;;3.45;0.80;;;;;;;15.71;50.28;101801.00;5036927;28;20778;-76
2021/09/13 06:01:07;;;;;;;7.00;0.30;;;;;;;15.78;50.09;101802.41;5045372;28;20631;-73
2021/09/13 06:03:33;;;;;;;9.13;0.40;;;;;;;15.89;49.07;101809.81;5021860;28;20025;-73
2021/09/13 06:06:06;;;;;;;3.22;0.22;;;;;;;16.02;49.37;101802.19;5053806;28;20039;-74
2021/09/13 06:08:35;;;;;;;5.43;0.85;;;;;;;16.10;48.80;101810.56;5041397;28;20437;-73
2021/09/13 06:11:03;;;;;;;3.53;0.30;;;;;;;16.17;49.15;101804.06;5029520;28;20155;-73
2021/09/13 06:13:28;;;;;;;4.95;0.70;;;;;;;16.40;48.71;101809.06;5043017;28;20094;-72
2021/09/13 06:15:53;;;;;;;2.58;0.30;;;;;;;16.59;48.11;101810.78;5045176;28;20053;-72
2021/09/13 06:18:19;;;;;;;2.88;0.45;;;;;;;16.40;47.41;101814.34;5036882;28;20045;-72
2021/09/13 06:20:45;;;;;;;5.97;0.70;;;;;;;16.44;47.82;101822.09;5036256;28;20029;-72
2021/09/13 06:23:10;;;;;;;2.63;0.25;;;;;;;16.53;47.41;101816.34;5037848;28;20119;-71
2021/09/13 06:25:36;;;;;;;5.57;0.60;;;;;;;16.49;46.91;101820.94;5036509;28;20029;-73
2021/09/13 06:28:02;;;;;;;1.98;0.30;;;;;;;16.49;47.19;101822.72;5042410;28;20083;-72
2021/09/13 06:30:28;;;;;;;6.40;1.50;;;;;;;16.31;47.53;101820.09;5037180;28;20045;-72
2021/09/13 06:32:56;;;;;;;3.78;0.55;;;;;;;16.40;47.04;101827.53;5042035;28;20705;-72
2021/09/13 06:35:22;;;;;;;5.20;0.25;;;;;;;16.47;47.35;101827.25;5054861;28;20120;-73
2021/09/13 06:38:01;;;;;;;9.55;0.43;;;;;;;16.44;46.53;101828.22;5039887;28;20078;-73
2021/09/13 06:40:27;;;;;;;3.83;0.47;;;;;;;16.40;47.32;101827.53;5036974;28;20025;-72
2021/09/13 06:42:53;;;;;;;4.18;0.30;;;;;;;16.45;47.30;101831.75;5037952;28;20060;-73
2021/09/13 06:45:23;;;;;;;4.10;0.65;;;;;;;16.49;47.06;101836.78;5036186;28;20020;-72
2021/09/13 06:47:49;;;;;;;1.50;0.30;;;;;;;16.51;46.52;101839.31;5035398;28;20034;-72
2021/09/13 06:50:28;;;;;;;8.57;0.25;;;;;;;16.55;45.40;101840.88;5039686;28;20124;-73
2021/09/13 06:52:57;;;;;;;6.63;0.30;;;;;;;16.81;46.03;101853.66;5042310;28;20043;-73
2021/09/13 06:55:23;;;;;;;4.40;0.40;;;;;;;17.14;44.70;101846.72;5025737;28;20063;-72
2021/09/13 06:57:51;;;;;;;10.82;0.85;;;;;;;17.19;44.34;101852.59;5035183;28;20049;-72
2021/09/13 07:00:19;;;;;;;3.08;0.20;;;;;;;16.98;44.61;101852.81;5035930;28;20047;-71
2021/09/13 07:02:46;;;;;;;2.85;0.20;;;;;;;16.87;44.47;101859.53;5037483;28;20170;-72
2021/09/13 07:05:13;;;;;;;2.60;0.30;;;;;;;16.77;45.13;101862.66;5036993;28;20084;-71
2021/09/13 07:07:39;;;;;;;5.00;0.60;;;;;;;16.75;45.35;101861.88;5025513;28;20638;-72
2021/09/13 07:10:07;;;;;;;3.00;0.30;;;;;;;16.78;45.58;101863.53;5035610;28;20116;-72
2021/09/13 07:12:34;;;;;;;6.30;0.50;;;;;;;16.72;45.03;101856.72;5036430;28;20148;-72
2021/09/13 07:15:00;;;;;;;9.23;3.10;;;;;;;16.86;45.12;101871.06;5036636;28;20516;-73
2021/09/13 07:17:27;;;;;;;7.22;0.82;;;;;;;16.91;45.35;101879.59;5035703;28;20030;-72
2021/09/13 07:19:52;;;;;;;8.32;0.68;;;;;;;16.97;44.45;101877.47;5040083;28;20020;-72
2021/09/13 07:22:19;;;;;;;1.73;0.28;;;;;;;17.12;45.47;101873.22;5043162;28;20049;-72
2021/09/13 07:24:45;;;;;;;4.15;0.40;;;;;;;17.48;44.13;101880.16;5038106;28;20212;-73
2021/09/13 07:27:11;;;;;;;5.75;0.30;;;;;;;17.66;42.77;101880.94;5032878;28;20041;-72
2021/09/13 07:29:41;;;;;;;1.88;0.20;;;;;;;17.73;43.45;101876.19;5037502;28;20048;-72
2021/09/13 07:32:06;;;;;;;1.65;0.20;;;;;;;17.83;43.40;101878.25;5035632;28;20066;-73
2021/09/13 07:34:33;;;;;;;1.75;0.20;;;;;;;17.74;42.75;101881.41;5035465;28;20029;-72
2021/09/13 07:36:59;;;;;;;7.82;0.35;;;;;;;17.54;42.53;101881.63;5034291;28;20466;-71
2021/09/13 07:39:26;;;;;;;2.90;0.30;;;;;;;17.61;42.04;101885.66;5032506;28;20044;-72
2021/09/13 07:41:52;;;;;;;2.05;0.20;;;;;;;17.63;41.80;101887.28;5033407;28;20024;-72
2021/09/13 07:44:17;;;;;;;1.42;0.20;;;;;;;17.66;41.50;101888.88;5030337;28;20090;-71
2021/09/13 07:46:43;;;;;;;3.20;0.35;;;;;;;17.71;41.92;101897.41;5038525;28;20557;-72
2021/09/13 07:49:09;;;;;;;1.95;0.40;;;;;;;17.86;41.87;101890.44;5033056;28;20105;-72
2021/09/13 07:51:36;;;;;;;1.75;0.30;;;;;;;18.08;40.88;101897.19;5015516;28;20309;-71
2021/09/13 07:54:02;;;;;;;4.53;0.20;;;;;;;18.19;40.73;101882.47;5032241;28;20925;-73
2021/09/13 07:56:28;;;;;;;1.75;0.20;;;;;;;18.37;40.69;101900.88;5049271;28;20094;-72
2021/09/13 07:58:54;;;;;;;4.38;0.22;;;;;;;18.22;39.63;101897.31;5037300;28;20037;-73
2021/09/13 08:01:20;;;;;;;3.45;0.28;;;;;;;18.20;39.45;101904.47;5032337;28;20087;-73
2021/09/13 08:03:46;;;;;;;1.98;0.20;;;;;;;18.48;38.46;101896.66;5051436;28;20528;-73
2021/09/13 08:06:11;;;;;;;4.75;0.65;;;;;;;18.49;39.13;101900.16;5032478;28;20032;-73
2021/09/13 08:08:37;;;;;;;3.25;0.70;;;;;;;18.36;38.84;101899.16;5031740;28;20470;-73
2021/09/13 08:11:04;;;;;;;5.55;0.38;;;;;;;18.45;39.36;101904.81;5032281;28;20047;-73
2021/09/13 08:13:30;;;;;;;4.50;0.35;;;;;;;18.44;39.25;101903.06;5036204;28;20024;-72
2021/09/13 08:15:56;;;;;;;3.00;0.47;;;;;;;18.34;38.28;101912.50;5031190;28;20029;-74
2021/09/13 08:18:25;;;;;;;2.97;0.30;;;;;;;18.19;38.81;101914.22;5035076;28;20046;-73
2021/09/13 08:20:52;;;;;;;4.60;0.30;;;;;;;17.91;40.73;101924.56;5049216;28;20029;-72
2021/09/13 08:23:19;;;;;;;2.97;0.55;;;;;;;17.81;41.73;101929.53;5034970;28;20116;-72
2021/09/13 08:25:44;;;;;;;5.15;0.30;;;;;;;17.49;42.17;101940.00;5031858;28;20335;-72
2021/09/13 08:28:19;;;;;;;6.63;0.30;;;;;;;16.89;43.87;101932.50;5032854;28;20045;-73
2021/09/13 08:30:46;;;;;;;3.85;0.30;;;;;;;17.15;43.70;101943.50;5032915;28;20041;-73
2021/09/13 08:33:11;;;;;;;7.43;0.52;;;;;;;17.18;43.20;101948.63;5033615;28;20045;-73
2021/09/13 08:35:37;;;;;;;3.80;0.25;;;;;;;17.23;42.92;101949.28;5031588;28;20554;-72
2021/09/13 08:38:02;;;;;;;1.05;0.20;;;;;;;17.03;42.15;101948.50;5033623;28;20072;-72
2021/09/13 08:40:28;;;;;;;2.75;0.20;;;;;;;17.26;41.48;101950.91;5034314;28;20524;-72
2021/09/13 08:42:54;;;;;;;2.45;0.20;;;;;;;17.18;41.12;101952.16;5019307;28;20456;-71
2021/09/13 08:45:40;;;;;;;4.35;0.75;;;;;;;16.91;41.55;101945.59;5039172;28;20033;-71
2021/09/13 08:51:03;;;;;;;3.03;0.43;;;;;;;17.54;40.19;101953.84;5034537;28;20396;-72
2021/09/13 08:53:31;;;;;;;1.35;0.20;;;;;;;17.51;39.53;101961.06;5031562;28;20132;-71
2021/09/13 08:55:57;;;;;;;1.40;0.05;;;;;;;17.78;38.60;101956.09;5037820;28;20048;-72
2021/09/13 08:58:23;;;;;;;0.95;0.15;;;;;;;17.87;38.29;101963.53;5032831;28;20529;-72
2021/09/13 09:00:50;;;;;;;2.75;0.15;;;;;;;18.15;37.82;101962.06;5031716;28;20426;-72
2021/09/13 09:03:17;;;;;;;0.95;0.15;;;;;;;18.12;37.97;101959.56;5032544;28;20041;-69
2021/09/13 09:05:46;;;;;;;2.58;0.10;;;;;;;18.37;38.54;101959.09;5034165;28;20029;-69
2021/09/13 09:08:30;;;;;;;4.15;0.20;;;;;;;18.84;38.12;101959.03;5036011;28;20116;-70
2021/09/13 09:10:58;;;;;;;1.80;0.30;;;;;;;18.44;38.57;101968.41;5037026;28;20026;-70
2021/09/13 09:13:26;;;;;;;0.65;0.10;;;;;;;18.76;38.65;101966.56;5041117;28;20047;-68
2021/09/13 09:15:54;;;;;;;4.10;0.20;;;;;;;18.77;38.16;101965.63;5035433;28;20023;-68
2021/09/13 09:18:22;;;;;;;3.83;0.30;;;;;;;18.96;37.48;101967.22;5033183;28;20134;-69
2021/09/13 09:20:50;;;;;;;5.43;0.30;;;;;;;19.45;37.62;101965.16;5051223;28;20405;-70
2021/09/13 09:23:16;;;;;;;0.82;0.30;;;;;;;19.61;35.59;101965.09;5053593;28;20041;-70
2021/09/13 09:25:41;;;;;;;3.15;0.10;;;;;;;19.89;35.02;101969.56;5031323;28;20067;-69
2021/09/13 09:28:14;;;;;;;4.82;0.22;;;;;;;19.83;34.93;101972.59;5034723;28;20048;-71
2021/09/13 09:30:42;;;;;;;4.88;0.20;;;;;;;19.77;35.88;101975.66;5032912;28;20021;-70
2021/09/13 09:33:14;;;;;;;1.85;0.10;;;;;;;19.53;35.84;101966.50;5033645;28;20032;-69
2021/09/13 09:35:41;;;;;;;;;;;;;;;19.56;35.70;101977.78;5035205;28;20640;-69
2021/09/13 09:38:25;;;;;;;3.85;0.28;;;;;;;19.76;35.51;101970.44;5034272;28;20453;-69
2021/09/13 09:41:02;;;;;;;3.65;0.10;;;;;;;19.44;35.37;101974.06;5049035;28;20497;-69
2021/09/13 09:43:30;;;;;;;0.93;0.10;;;;;;;20.04;33.93;101965.09;5040680;28;20033;-69
2021/09/13 09:45:56;;;;;;;4.65;0.20;;;;;;;20.86;34.46;101963.34;5024606;28;20035;-69
2021/09/13 09:48:28;;;;;;;2.15;0.28;;;;;;;21.28;32.16;101964.06;5051897;28;20036;-67
2021/09/13 09:50:54;;;;;;;1.42;0.20;;;;;;;21.42;31.38;101957.78;5032025;28;20048;-66
2021/09/13 09:53:21;;;;;;;1.13;0.17;;;;;;;20.85;32.62;101964.34;5018921;28;20057;-73
2021/09/13 09:55:52;;;;;;;1.05;0.28;;;;;;;20.63;33.45;101958.72;5035452;28;20032;-74
2021/09/13 09:58:17;;;;;;;1.63;0.20;;;;;;;19.57;34.66;101957.44;5017759;28;20046;-72
2021/09/13 10:00:47;;;;;;;0.73;0.25;;;;;;;19.76;35.56;101970.44;5036376;28;20572;-72
2021/09/13 10:03:29;;;;;;;2.47;0.20;;;;;;;19.19;35.51;101964.09;5042475;28;20037;-72
2021/09/13 10:05:56;;;;;;;1.33;0.10;;;;;;;19.18;35.90;101957.06;5043515;28;20120;-73
2021/09/13 10:08:23;;;;;;;1.88;0.20;;;;;;;19.37;36.99;101956.84;5021899;28;20130;-72
2021/09/13 10:10:49;;;;;;;2.50;0.50;;;;;;;19.33;35.74;101954.47;5057284;28;20672;-73
2021/09/13 10:13:14;;;;;;;0.70;0.13;;;;;;;19.44;36.08;101954.66;5038908;28;20242;-68
2021/09/13 10:15:40;;;;;;;1.85;0.10;;;;;;;19.23;35.33;101955.03;5056072;28;20064;-69
2021/09/13 10:18:06;;;;;;;1.42;0.57;;;;;;;19.74;35.12;101956.41;5045080;28;20111;-67
2021/09/13 10:20:32;;;;;;;2.67;0.10;;;;;;;20.18;34.77;101958.91;5044401;28;20030;-69
2021/09/13 10:22:58;;;;;;;0.50;0.00;;;;;;;19.58;34.00;101960.00;5037220;28;20029;-70
2021/09/13 10:25:29;;;;;;;1.17;0.13;;;;;;;19.88;34.06;101959.91;5038392;28;20040;-69
2021/09/13 10:28:01;;;;;;;;;;;;;;;20.02;33.56;101959.03;5038980;28;20517;-68
2021/09/13 10:30:27;;;;;;;1.13;0.20;;;;;;;20.40;32.75;101958.41;5052572;28;19929;-67
2021/09/13 10:33:10;;;;;;;0.75;0.05;;;;;;;20.53;32.58;101951.34;5037090;28;20443;-69
2021/09/13 10:35:57;;;;;;;0.68;0.32;;;;;;;19.89;32.25;101960.75;5041974;28;20033;-69
2021/09/13 10:38:43;;;;;;;0.30;0.10;;;;;;;19.24;32.99;101950.56;5043923;28;20040;-71
2021/09/13 10:41:10;;;;;;;3.50;0.30;;;;;;;19.31;33.64;101957.19;5039802;28;20033;-74
2021/09/13 10:43:36;;;;;;;0.65;0.17;;;;;;;19.19;34.21;101953.50;5041250;28;20033;-71
2021/09/13 10:46:02;;;;;;;0.68;0.10;;;;;;;19.01;34.87;101954.56;5036328;28;20116;-69
2021/09/13 10:48:27;;;;;;;2.70;0.00;;;;;;;19.39;34.11;101959.38;5034860;28;20075;-70
2021/09/13 10:50:55;;;;;;;0.73;0.00;;;;;;;19.32;33.79;101950.94;5035984;28;20121;-68
2021/09/13 10:53:20;;;;;;;3.72;0.10;;;;;;;19.64;33.52;101951.66;5037979;28;20083;-70
2021/09/13 10:55:48;;;;;;;3.45;0.10;;;;;;;19.81;33.04;101955.06;5038049;28;20465;-69
2021/09/13 10:58:19;;;;;;;1.02;0.10;;;;;;;20.14;32.84;101954.75;5044765;28;20054;-70
2021/09/13 11:00:45;;;;;;;3.45;0.10;;;;;;;20.00;33.00;101950.31;5035878;28;20429;-70
2021/09/13 11:03:23;;;;;;;2.67;0.20;;;;;;;19.60;34.10;101946.66;5055202;28;20029;-68
2021/09/13 11:06:13;;;;;;;1.85;0.30;;;;;;;19.62;33.21;101945.59;5037460;28;20120;-70
2021/09/13 11:08:55;;;;;;;2.00;0.10;;;;;;;20.91;32.98;101942.66;5036247;28;20403;-71
2021/09/13 11:11:34;;;;;;;1.35;0.08;;;;;;;22.03;31.12;101936.69;5038566;28;20113;-70
2021/09/13 11:14:06;;;;;;;1.27;0.20;;;;;;;21.61;31.23;101946.75;5034523;28;20044;-73
2021/09/13 11:16:35;;;;;;;2.47;0.10;;;;;;;21.18;30.87;101938.22;5037656;28;20029;-70
2021/09/13 11:19:03;;;;;;;2.70;0.10;;;;;;;21.26;31.40;101936.72;5036575;28;20029;-70
2021/09/13 11:21:32;;;;;;;4.90;0.10;;;;;;;21.12;31.85;101934.19;5035721;28;20037;-69
2021/09/13 11:23:59;;;;;;;2.80;0.17;;;;;;;20.99;31.74;101938.63;5035094;28;20079;-70
2021/09/13 11:26:28;;;;;;;1.67;0.20;;;;;;;20.94;31.55;101942.44;5035297;28;20120;-69
2021/09/13 11:28:59;;;;;;;0.50;0.30;;;;;;;19.89;33.09;101948.34;5024989;28;20119;-70
2021/09/13 11:31:33;;;;;;;2.65;0.38;;;;;;;20.04;32.94;101946.53;5036306;28;20053;-67
2021/09/13 11:34:05;;;;;;;2.17;0.17;;;;;;;19.65;33.03;101952.53;5037339;28;20037;-68
2021/09/13 11:36:32;;;;;;;0.77;0.10;;;;;;;19.25;34.92;101958.41;5042629;28;20022;-69
2021/09/13 11:39:04;;;;;;;;;;;;;;;19.44;34.77;101952.84;5034451;28;20032;-69
2021/09/13 11:41:30;;;;;;;1.65;0.10;;;;;;;19.47;33.49;101952.66;5042459;28;19928;-67